sensor_id;sensor_type;location;lat;lon;timestamp;P1;durP1;ratioP1;P2;durP2;ratioP2
36189;SDS011;22232;50.914;13.858;2023-06-14T00:01:38;6.93;;;4.10;;
36189;SDS011;22232;50.914;13.858;2023-06-14T00:04:05;8.88;;;4.20;;
36189;SDS011;22232;50.914;13.858;2023-06-14T00:06:35;6.70;;;4.22;;
36189;SDS011;22232;50.914;13.858;2023-06-14T00:09:03;6.88;;;4.15;;
36189;SDS011;22232;50.914;13.858;2023-06-14T00:11:32;7.57;;;3.85;;
36189;SDS011;22232;50.914;13.858;2023-06-14T00:13:59;6.32;;;4.32;;
36189;SDS011;22232;50.914;13.858;2023-06-14T00:16:27;7.35;;;4.07;;
36189;SDS011;22232;50.914;13.858;2023-06-14T00:18:55;5.90;;;3.70;;
36189;SDS011;22232;50.914;13.858;2023-06-14T00:21:23;7.60;;;4.50;;
36189;SDS011;22232;50.914;13.858;2023-06-14T00:23:50;7.57;;;4.20;;
36189;SDS011;22232;50.914;13.858;2023-06-14T00:26:18;8.10;;;4.35;;
36189;SDS011;22232;50.914;13.858;2023-06-14T00:28:46;6.25;;;4.78;;
36189;SDS011;22232;50.914;13.858;2023-06-14T00:31:14;6.45;;;3.95;;
36189;SDS011;22232;50.914;13.858;2023-06-14T00:33:42;7.15;;;4.15;;
36189;SDS011;22232;50.914;13.858;2023-06-14T00:36:11;6.75;;;4.10;;
36189;SDS011;22232;50.914;13.858;2023-06-14T00:38:39;6.03;;;3.75;;
36189;SDS011;22232;50.914;13.858;2023-06-14T00:41:08;5.38;;;3.75;;
36189;SDS011;22232;50.914;13.858;2023-06-14T00:43:36;7.97;;;3.97;;
36189;SDS011;22232;50.914;13.858;2023-06-14T00:46:03;5.32;;;3.47;;
36189;SDS011;22232;50.914;13.858;2023-06-14T00:48:31;7.88;;;3.83;;
36189;SDS011;22232;50.914;13.858;2023-06-14T00:51:00;5.75;;;3.80;;
36189;SDS011;22232;50.914;13.858;2023-06-14T00:53:31;5.20;;;3.85;;
36189;SDS011;22232;50.914;13.858;2023-06-14T00:56:03;6.78;;;3.72;;
36189;SDS011;22232;50.914;13.858;2023-06-14T00:58:30;8.10;;;3.85;;
36189;SDS011;22232;50.914;13.858;2023-06-14T01:00:59;6.65;;;4.20;;
36189;SDS011;22232;50.914;13.858;2023-06-14T01:03:26;8.65;;;4.13;;
36189;SDS011;22232;50.914;13.858;2023-06-14T01:09:23;6.03;;;4.22;;
36189;SDS011;22232;50.914;13.858;2023-06-14T01:12:07;7.05;;;4.32;;
36189;SDS011;22232;50.914;13.858;2023-06-14T01:14:41;6.72;;;3.92;;
36189;SDS011;22232;50.914;13.858;2023-06-14T01:17:09;7.85;;;4.03;;
36189;SDS011;22232;50.914;13.858;2023-06-14T01:19:44;5.38;;;3.40;;
36189;SDS011;22232;50.914;13.858;2023-06-14T01:22:14;6.80;;;4.35;;
36189;SDS011;22232;50.914;13.858;2023-06-14T01:24:41;6.70;;;4.07;;
36189;SDS011;22232;50.914;13.858;2023-06-14T01:27:12;8.23;;;4.47;;
36189;SDS011;22232;50.914;13.858;2023-06-14T01:29:40;10.15;;;4.30;;
36189;SDS011;22232;50.914;13.858;2023-06-14T01:32:14;6.35;;;4.00;;
36189;SDS011;22232;50.914;13.858;2023-06-14T01:34:43;6.15;;;4.68;;
36189;SDS011;22232;50.914;13.858;2023-06-14T01:37:11;7.03;;;4.40;;
36189;SDS011;22232;50.914;13.858;2023-06-14T01:39:40;7.07;;;4.35;;
36189;SDS011;22232;50.914;13.858;2023-06-14T01:42:10;5.88;;;3.85;;
36189;SDS011;22232;50.914;13.858;2023-06-14T01:44:41;5.55;;;4.10;;
36189;SDS011;22232;50.914;13.858;2023-06-14T01:47:11;5.78;;;3.88;;
36189;SDS011;22232;50.914;13.858;2023-06-14T01:49:40;4.38;;;3.70;;
36189;SDS011;22232;50.914;13.858;2023-06-14T01:52:08;4.95;;;3.70;;
36189;SDS011;22232;50.914;13.858;2023-06-14T01:54:37;4.35;;;3.40;;
36189;SDS011;22232;50.914;13.858;2023-06-14T01:57:09;3.83;;;2.92;;
36189;SDS011;22232;50.914;13.858;2023-06-14T01:59:37;7.63;;;3.90;;
36189;SDS011;22232;50.914;13.858;2023-06-14T02:02:05;6.70;;;3.35;;
36189;SDS011;22232;50.914;13.858;2023-06-14T02:04:33;4.75;;;3.60;;
36189;SDS011;22232;50.914;13.858;2023-06-14T02:07:00;4.68;;;3.67;;
36189;SDS011;22232;50.914;13.858;2023-06-14T02:09:28;3.95;;;3.50;;
36189;SDS011;22232;50.914;13.858;2023-06-14T02:11:55;5.07;;;3.85;;
36189;SDS011;22232;50.914;13.858;2023-06-14T02:14:23;5.78;;;3.97;;
36189;SDS011;22232;50.914;13.858;2023-06-14T02:16:52;7.45;;;3.92;;
36189;SDS011;22232;50.914;13.858;2023-06-14T02:19:20;5.75;;;3.70;;
36189;SDS011;22232;50.914;13.858;2023-06-14T02:21:47;5.32;;;3.67;;
36189;SDS011;22232;50.914;13.858;2023-06-14T02:24:15;6.47;;;3.80;;
36189;SDS011;22232;50.914;13.858;2023-06-14T02:26:43;5.75;;;3.60;;
36189;SDS011;22232;50.914;13.858;2023-06-14T02:29:14;4.57;;;3.40;;
36189;SDS011;22232;50.914;13.858;2023-06-14T02:31:43;4.32;;;3.50;;
36189;SDS011;22232;50.914;13.858;2023-06-14T02:34:11;6.38;;;3.83;;
36189;SDS011;22232;50.914;13.858;2023-06-14T02:36:39;7.13;;;3.90;;
36189;SDS011;22232;50.914;13.858;2023-06-14T02:39:09;4.90;;;3.67;;
36189;SDS011;22232;50.914;13.858;2023-06-14T02:41:38;5.18;;;4.20;;
36189;SDS011;22232;50.914;13.858;2023-06-14T02:44:06;9.43;;;4.63;;
36189;SDS011;22232;50.914;13.858;2023-06-14T02:46:34;5.78;;;4.20;;
36189;SDS011;22232;50.914;13.858;2023-06-14T02:49:01;6.53;;;4.03;;
36189;SDS011;22232;50.914;13.858;2023-06-14T02:51:30;7.50;;;3.90;;
36189;SDS011;22232;50.914;13.858;2023-06-14T02:53:58;5.72;;;3.80;;
36189;SDS011;22232;50.914;13.858;2023-06-14T02:56:26;6.00;;;4.05;;
36189;SDS011;22232;50.914;13.858;2023-06-14T02:58:55;6.55;;;4.00;;
36189;SDS011;22232;50.914;13.858;2023-06-14T03:01:25;5.88;;;4.10;;
36189;SDS011;22232;50.914;13.858;2023-06-14T03:04:05;7.28;;;3.95;;
36189;SDS011;22232;50.914;13.858;2023-06-14T03:06:35;5.00;;;4.00;;
36189;SDS011;22232;50.914;13.858;2023-06-14T03:09:04;5.35;;;3.85;;
36189;SDS011;22232;50.914;13.858;2023-06-14T03:11:34;6.93;;;4.13;;
36189;SDS011;22232;50.914;13.858;2023-06-14T03:14:03;5.43;;;4.25;;
36189;SDS011;22232;50.914;13.858;2023-06-14T03:16:31;7.78;;;4.18;;
36189;SDS011;22232;50.914;13.858;2023-06-14T03:19:00;6.00;;;4.35;;
36189;SDS011;22232;50.914;13.858;2023-06-14T03:21:30;6.38;;;4.30;;
36189;SDS011;22232;50.914;13.858;2023-06-14T03:24:02;10.18;;;4.22;;
36189;SDS011;22232;50.914;13.858;2023-06-14T03:26:32;6.00;;;4.10;;
36189;SDS011;22232;50.914;13.858;2023-06-14T03:29:01;5.60;;;4.05;;
36189;SDS011;22232;50.914;13.858;2023-06-14T03:31:29;4.47;;;3.83;;
36189;SDS011;22232;50.914;13.858;2023-06-14T03:34:02;7.00;;;4.07;;
36189;SDS011;22232;50.914;13.858;2023-06-14T03:36:30;5.35;;;3.72;;
36189;SDS011;22232;50.914;13.858;2023-06-14T03:38:57;5.75;;;4.20;;
36189;SDS011;22232;50.914;13.858;2023-06-14T03:41:25;5.82;;;3.58;;
36189;SDS011;22232;50.914;13.858;2023-06-14T03:43:54;9.80;;;4.10;;
36189;SDS011;22232;50.914;13.858;2023-06-14T03:46:21;4.80;;;3.40;;
36189;SDS011;22232;50.914;13.858;2023-06-14T03:48:49;6.68;;;3.97;;
36189;SDS011;22232;50.914;13.858;2023-06-14T03:51:18;6.20;;;3.97;;
36189;SDS011;22232;50.914;13.858;2023-06-14T03:53:45;4.68;;;3.78;;
36189;SDS011;22232;50.914;13.858;2023-06-14T03:56:34;4.10;;;3.20;;
36189;SDS011;22232;50.914;13.858;2023-06-14T03:59:06;4.25;;;3.60;;
36189;SDS011;22232;50.914;13.858;2023-06-14T04:01:34;4.50;;;3.60;;
36189;SDS011;22232;50.914;13.858;2023-06-14T04:04:01;9.27;;;3.55;;
36189;SDS011;22232;50.914;13.858;2023-06-14T04:06:29;4.00;;;3.22;;
36189;SDS011;22232;50.914;13.858;2023-06-14T04:09:00;3.95;;;3.20;;
36189;SDS011;22232;50.914;13.858;2023-06-14T04:11:32;4.45;;;3.25;;
36189;SDS011;22232;50.914;13.858;2023-06-14T04:14:01;4.53;;;3.25;;
36189;SDS011;22232;50.914;13.858;2023-06-14T04:16:29;4.45;;;3.50;;
36189;SDS011;22232;50.914;13.858;2023-06-14T04:18:58;5.65;;;3.65;;
36189;SDS011;22232;50.914;13.858;2023-06-14T04:21:26;5.13;;;3.30;;
36189;SDS011;22232;50.914;13.858;2023-06-14T04:23:58;7.40;;;3.95;;
36189;SDS011;22232;50.914;13.858;2023-06-14T04:26:30;4.35;;;3.25;;
36189;SDS011;22232;50.914;13.858;2023-06-14T04:29:01;5.70;;;3.75;;
36189;SDS011;22232;50.914;13.858;2023-06-14T04:31:32;6.22;;;3.50;;
36189;SDS011;22232;50.914;13.858;2023-06-14T04:34:02;6.93;;;3.55;;
36189;SDS011;22232;50.914;13.858;2023-06-14T04:36:35;9.27;;;3.42;;
36189;SDS011;22232;50.914;13.858;2023-06-14T04:39:05;4.38;;;3.17;;
36189;SDS011;22232;50.914;13.858;2023-06-14T04:41:33;5.28;;;3.83;;
36189;SDS011;22232;50.914;13.858;2023-06-14T04:44:02;4.20;;;3.40;;
36189;SDS011;22232;50.914;13.858;2023-06-14T04:46:36;5.75;;;3.70;;
36189;SDS011;22232;50.914;13.858;2023-06-14T04:49:22;5.88;;;3.22;;
36189;SDS011;22232;50.914;13.858;2023-06-14T04:51:53;4.85;;;3.20;;
36189;SDS011;22232;50.914;13.858;2023-06-14T04:54:39;7.63;;;3.75;;
36189;SDS011;22232;50.914;13.858;2023-06-14T04:57:14;5.38;;;3.53;;
36189;SDS011;22232;50.914;13.858;2023-06-14T04:59:48;4.00;;;3.13;;
36189;SDS011;22232;50.914;13.858;2023-06-14T05:02:24;4.88;;;3.58;;
36189;SDS011;22232;50.914;13.858;2023-06-14T05:04:54;7.30;;;4.20;;
36189;SDS011;22232;50.914;13.858;2023-06-14T05:07:24;6.10;;;3.60;;
36189;SDS011;22232;50.914;13.858;2023-06-14T05:09:52;6.03;;;3.72;;
36189;SDS011;22232;50.914;13.858;2023-06-14T05:12:20;4.72;;;3.53;;
36189;SDS011;22232;50.914;13.858;2023-06-14T05:14:49;4.55;;;3.38;;
36189;SDS011;22232;50.914;13.858;2023-06-14T05:17:19;8.07;;;3.33;;
36189;SDS011;22232;50.914;13.858;2023-06-14T05:19:48;4.82;;;3.55;;
36189;SDS011;22232;50.914;13.858;2023-06-14T05:22:15;6.28;;;4.10;;
36189;SDS011;22232;50.914;13.858;2023-06-14T05:24:43;5.75;;;3.90;;
36189;SDS011;22232;50.914;13.858;2023-06-14T05:27:10;6.25;;;3.60;;
36189;SDS011;22232;50.914;13.858;2023-06-14T05:29:38;4.70;;;3.65;;
36189;SDS011;22232;50.914;13.858;2023-06-14T05:32:07;5.03;;;3.88;;
36189;SDS011;22232;50.914;13.858;2023-06-14T05:34:35;4.38;;;3.63;;
36189;SDS011;22232;50.914;13.858;2023-06-14T05:37:02;4.90;;;4.13;;
36189;SDS011;22232;50.914;13.858;2023-06-14T05:39:31;5.72;;;3.95;;
36189;SDS011;22232;50.914;13.858;2023-06-14T05:41:58;6.50;;;3.90;;
36189;SDS011;22232;50.914;13.858;2023-06-14T05:44:26;6.78;;;4.10;;
36189;SDS011;22232;50.914;13.858;2023-06-14T05:46:54;6.57;;;3.92;;
36189;SDS011;22232;50.914;13.858;2023-06-14T05:49:21;7.35;;;3.80;;
36189;SDS011;22232;50.914;13.858;2023-06-14T05:51:49;6.03;;;4.05;;
36189;SDS011;22232;50.914;13.858;2023-06-14T05:54:16;4.30;;;3.90;;
36189;SDS011;22232;50.914;13.858;2023-06-14T05:56:44;6.35;;;4.35;;
36189;SDS011;22232;50.914;13.858;2023-06-14T05:59:12;6.22;;;4.22;;
36189;SDS011;22232;50.914;13.858;2023-06-14T06:01:39;8.43;;;4.15;;
36189;SDS011;22232;50.914;13.858;2023-06-14T06:04:09;5.10;;;3.75;;
36189;SDS011;22232;50.914;13.858;2023-06-14T06:06:37;5.03;;;3.90;;
36189;SDS011;22232;50.914;13.858;2023-06-14T06:09:04;5.65;;;4.05;;
36189;SDS011;22232;50.914;13.858;2023-06-14T06:11:32;7.13;;;4.40;;
36189;SDS011;22232;50.914;13.858;2023-06-14T06:14:18;6.40;;;4.47;;
36189;SDS011;22232;50.914;13.858;2023-06-14T06:16:45;6.72;;;4.57;;
36189;SDS011;22232;50.914;13.858;2023-06-14T06:19:13;7.60;;;4.30;;
36189;SDS011;22232;50.914;13.858;2023-06-14T06:21:41;4.95;;;4.03;;
36189;SDS011;22232;50.914;13.858;2023-06-14T06:24:09;8.75;;;4.32;;
36189;SDS011;22232;50.914;13.858;2023-06-14T06:26:36;6.95;;;4.75;;
36189;SDS011;22232;50.914;13.858;2023-06-14T06:29:04;7.63;;;4.70;;
36189;SDS011;22232;50.914;13.858;2023-06-14T06:31:32;5.60;;;4.35;;
36189;SDS011;22232;50.914;13.858;2023-06-14T06:34:00;7.25;;;4.43;;
36189;SDS011;22232;50.914;13.858;2023-06-14T06:36:27;6.63;;;4.47;;
36189;SDS011;22232;50.914;13.858;2023-06-14T06:38:55;5.70;;;4.45;;
36189;SDS011;22232;50.914;13.858;2023-06-14T06:41:22;7.85;;;5.10;;
36189;SDS011;22232;50.914;13.858;2023-06-14T06:43:50;8.30;;;4.50;;
36189;SDS011;22232;50.914;13.858;2023-06-14T06:46:17;5.57;;;4.22;;
36189;SDS011;22232;50.914;13.858;2023-06-14T06:48:46;8.60;;;4.97;;
36189;SDS011;22232;50.914;13.858;2023-06-14T06:51:14;5.50;;;4.53;;
36189;SDS011;22232;50.914;13.858;2023-06-14T06:53:42;9.90;;;5.00;;
36189;SDS011;22232;50.914;13.858;2023-06-14T06:56:16;6.50;;;4.97;;
36189;SDS011;22232;50.914;13.858;2023-06-14T06:58:44;9.88;;;5.20;;
36189;SDS011;22232;50.914;13.858;2023-06-14T07:01:11;6.13;;;4.85;;
36189;SDS011;22232;50.914;13.858;2023-06-14T07:03:40;9.18;;;5.80;;
36189;SDS011;22232;50.914;13.858;2023-06-14T07:06:08;7.28;;;5.30;;
36189;SDS011;22232;50.914;13.858;2023-06-14T07:08:36;5.93;;;5.20;;
36189;SDS011;22232;50.914;13.858;2023-06-14T07:11:05;10.07;;;5.32;;
36189;SDS011;22232;50.914;13.858;2023-06-14T07:13:33;6.40;;;5.18;;
36189;SDS011;22232;50.914;13.858;2023-06-14T07:16:01;8.30;;;5.70;;
36189;SDS011;22232;50.914;13.858;2023-06-14T07:18:29;7.55;;;5.00;;
36189;SDS011;22232;50.914;13.858;2023-06-14T07:20:57;10.35;;;5.50;;
36189;SDS011;22232;50.914;13.858;2023-06-14T07:23:25;9.10;;;4.93;;
36189;SDS011;22232;50.914;13.858;2023-06-14T07:25:53;8.27;;;5.32;;
36189;SDS011;22232;50.914;13.858;2023-06-14T07:28:20;6.25;;;5.20;;
36189;SDS011;22232;50.914;13.858;2023-06-14T07:30:48;8.13;;;4.90;;
36189;SDS011;22232;50.914;13.858;2023-06-14T07:33:15;8.70;;;5.35;;
36189;SDS011;22232;50.914;13.858;2023-06-14T07:35:44;8.02;;;5.18;;
36189;SDS011;22232;50.914;13.858;2023-06-14T07:38:12;5.93;;;5.32;;
36189;SDS011;22232;50.914;13.858;2023-06-14T07:40:40;7.30;;;5.70;;
36189;SDS011;22232;50.914;13.858;2023-06-14T07:43:07;8.43;;;5.82;;
36189;SDS011;22232;50.914;13.858;2023-06-14T07:45:35;14.23;;;5.93;;
36189;SDS011;22232;50.914;13.858;2023-06-14T07:48:04;8.10;;;5.90;;
36189;SDS011;22232;50.914;13.858;2023-06-14T07:50:32;10.15;;;5.63;;
36189;SDS011;22232;50.914;13.858;2023-06-14T07:53:00;11.00;;;6.07;;
36189;SDS011;22232;50.914;13.858;2023-06-14T07:55:27;6.70;;;5.72;;
36189;SDS011;22232;50.914;13.858;2023-06-14T07:58:08;7.63;;;5.25;;
36189;SDS011;22232;50.914;13.858;2023-06-14T08:00:36;7.30;;;5.53;;
36189;SDS011;22232;50.914;13.858;2023-06-14T08:03:03;5.90;;;4.80;;
36189;SDS011;22232;50.914;13.858;2023-06-14T08:05:31;6.35;;;4.95;;
36189;SDS011;22232;50.914;13.858;2023-06-14T08:07:58;10.02;;;5.43;;
36189;SDS011;22232;50.914;13.858;2023-06-14T08:10:26;6.53;;;5.15;;
36189;SDS011;22232;50.914;13.858;2023-06-14T08:12:54;5.78;;;5.15;;
36189;SDS011;22232;50.914;13.858;2023-06-14T08:15:21;10.00;;;6.50;;
36189;SDS011;22232;50.914;13.858;2023-06-14T08:17:49;8.45;;;5.75;;
36189;SDS011;22232;50.914;13.858;2023-06-14T08:20:17;8.68;;;5.40;;
36189;SDS011;22232;50.914;13.858;2023-06-14T08:22:45;6.35;;;5.03;;
36189;SDS011;22232;50.914;13.858;2023-06-14T08:25:15;7.15;;;5.43;;
36189;SDS011;22232;50.914;13.858;2023-06-14T08:27:45;7.90;;;5.20;;
36189;SDS011;22232;50.914;13.858;2023-06-14T08:30:13;8.40;;;5.85;;
36189;SDS011;22232;50.914;13.858;2023-06-14T08:32:41;7.60;;;4.78;;
36189;SDS011;22232;50.914;13.858;2023-06-14T08:35:09;6.80;;;4.75;;
36189;SDS011;22232;50.914;13.858;2023-06-14T08:37:40;6.57;;;5.20;;
36189;SDS011;22232;50.914;13.858;2023-06-14T08:42:53;7.50;;;4.60;;
36189;SDS011;22232;50.914;13.858;2023-06-14T08:45:22;5.10;;;4.50;;
36189;SDS011;22232;50.914;13.858;2023-06-14T08:47:55;6.50;;;4.85;;
36189;SDS011;22232;50.914;13.858;2023-06-14T08:50:28;8.00;;;3.85;;
36189;SDS011;22232;50.914;13.858;2023-06-14T08:53:01;11.48;;;4.93;;
36189;SDS011;22232;50.914;13.858;2023-06-14T08:55:31;9.05;;;4.88;;
36189;SDS011;22232;50.914;13.858;2023-06-14T08:58:03;5.30;;;4.45;;
36189;SDS011;22232;50.914;13.858;2023-06-14T09:00:32;7.03;;;5.00;;
36189;SDS011;22232;50.914;13.858;2023-06-14T09:03:00;3.85;;;2.90;;
36189;SDS011;22232;50.914;13.858;2023-06-14T09:05:28;4.65;;;3.47;;
36189;SDS011;22232;50.914;13.858;2023-06-14T09:07:56;8.43;;;3.17;;
36189;SDS011;22232;50.914;13.858;2023-06-14T09:10:31;5.80;;;3.10;;
36189;SDS011;22232;50.914;13.858;2023-06-14T09:15:32;5.32;;;3.40;;
36189;SDS011;22232;50.914;13.858;2023-06-14T09:18:03;5.25;;;2.92;;
36189;SDS011;22232;50.914;13.858;2023-06-14T09:20:31;4.95;;;3.47;;
36189;SDS011;22232;50.914;13.858;2023-06-14T09:23:00;5.00;;;3.30;;
36189;SDS011;22232;50.914;13.858;2023-06-14T09:25:28;4.68;;;3.75;;
36189;SDS011;22232;50.914;13.858;2023-06-14T09:28:06;4.43;;;3.20;;
36189;SDS011;22232;50.914;13.858;2023-06-14T09:30:39;3.80;;;3.40;;
36189;SDS011;22232;50.914;13.858;2023-06-14T09:33:07;5.53;;;3.28;;
36189;SDS011;22232;50.914;13.858;2023-06-14T09:35:35;5.07;;;3.20;;
36189;SDS011;22232;50.914;13.858;2023-06-14T09:38:03;5.82;;;3.10;;
36189;SDS011;22232;50.914;13.858;2023-06-14T09:40:33;5.35;;;3.28;;
36189;SDS011;22232;50.914;13.858;2023-06-14T09:43:06;3.33;;;3.00;;
36189;SDS011;22232;50.914;13.858;2023-06-14T09:45:40;4.40;;;3.72;;
36189;SDS011;22232;50.914;13.858;2023-06-14T09:48:12;5.88;;;3.72;;
36189;SDS011;22232;50.914;13.858;2023-06-14T09:50:45;5.88;;;3.40;;
36189;SDS011;22232;50.914;13.858;2023-06-14T09:53:16;4.38;;;3.70;;
36189;SDS011;22232;50.914;13.858;2023-06-14T09:55:49;5.13;;;3.83;;
36189;SDS011;22232;50.914;13.858;2023-06-14T09:58:17;5.28;;;3.72;;
36189;SDS011;22232;50.914;13.858;2023-06-14T10:00:47;5.47;;;3.72;;
36189;SDS011;22232;50.914;13.858;2023-06-14T10:03:24;4.72;;;3.78;;
36189;SDS011;22232;50.914;13.858;2023-06-14T10:06:03;5.05;;;3.70;;
36189;SDS011;22232;50.914;13.858;2023-06-14T10:08:36;5.07;;;3.70;;
36189;SDS011;22232;50.914;13.858;2023-06-14T10:11:05;8.80;;;3.65;;
36189;SDS011;22232;50.914;13.858;2023-06-14T10:13:33;4.18;;;3.53;;
36189;SDS011;22232;50.914;13.858;2023-06-14T10:16:19;6.38;;;3.63;;
36189;SDS011;22232;50.914;13.858;2023-06-14T10:24:44;5.65;;;4.05;;
36189;SDS011;22232;50.914;13.858;2023-06-14T10:27:13;4.13;;;3.65;;
36189;SDS011;22232;50.914;13.858;2023-06-14T10:32:22;6.22;;;4.05;;
36189;SDS011;22232;50.914;13.858;2023-06-14T10:34:56;4.93;;;3.90;;
36189;SDS011;22232;50.914;13.858;2023-06-14T10:37:28;7.68;;;3.97;;
36189;SDS011;22232;50.914;13.858;2023-06-14T10:39:56;6.88;;;4.30;;
36189;SDS011;22232;50.914;13.858;2023-06-14T10:42:27;4.80;;;3.90;;
36189;SDS011;22232;50.914;13.858;2023-06-14T10:44:59;4.45;;;4.03;;
36189;SDS011;22232;50.914;13.858;2023-06-14T10:47:34;9.80;;;4.88;;
36189;SDS011;22232;50.914;13.858;2023-06-14T10:50:06;4.63;;;4.00;;
36189;SDS011;22232;50.914;13.858;2023-06-14T10:52:41;6.20;;;3.25;;
36189;SDS011;22232;50.914;13.858;2023-06-14T10:55:13;5.60;;;3.63;;
36189;SDS011;22232;50.914;13.858;2023-06-14T11:00:45;5.07;;;3.88;;
36189;SDS011;22232;50.914;13.858;2023-06-14T11:06:09;6.68;;;3.60;;
36189;SDS011;22232;50.914;13.858;2023-06-14T11:09:05;4.45;;;3.58;;
36189;SDS011;22232;50.914;13.858;2023-06-14T11:11:37;3.78;;;3.03;;
36189;SDS011;22232;50.914;13.858;2023-06-14T11:14:05;4.03;;;3.15;;
36189;SDS011;22232;50.914;13.858;2023-06-14T11:16:33;3.85;;;2.83;;
36189;SDS011;22232;50.914;13.858;2023-06-14T11:19:01;3.50;;;2.80;;
36189;SDS011;22232;50.914;13.858;2023-06-14T11:21:32;3.88;;;3.00;;
36189;SDS011;22232;50.914;13.858;2023-06-14T11:24:00;5.68;;;2.90;;
36189;SDS011;22232;50.914;13.858;2023-06-14T11:26:29;3.83;;;2.83;;
36189;SDS011;22232;50.914;13.858;2023-06-14T11:28:58;5.35;;;2.70;;
36189;SDS011;22232;50.914;13.858;2023-06-14T11:31:27;4.55;;;2.72;;
36189;SDS011;22232;50.914;13.858;2023-06-14T11:33:57;3.00;;;2.60;;
36189;SDS011;22232;50.914;13.858;2023-06-14T11:36:29;5.50;;;2.70;;
36189;SDS011;22232;50.914;13.858;2023-06-14T11:39:01;2.53;;;2.33;;
36189;SDS011;22232;50.914;13.858;2023-06-14T11:41:36;2.72;;;2.10;;
36189;SDS011;22232;50.914;13.858;2023-06-14T11:44:05;3.22;;;2.17;;
36189;SDS011;22232;50.914;13.858;2023-06-14T11:46:34;4.60;;;2.08;;
36189;SDS011;22232;50.914;13.858;2023-06-14T11:49:03;2.42;;;2.13;;
36189;SDS011;22232;50.914;13.858;2023-06-14T11:51:32;2.92;;;1.90;;
36189;SDS011;22232;50.914;13.858;2023-06-14T11:54:01;2.42;;;2.00;;
36189;SDS011;22232;50.914;13.858;2023-06-14T11:56:30;3.38;;;2.25;;
36189;SDS011;22232;50.914;13.858;2023-06-14T11:58:59;4.30;;;2.13;;
36189;SDS011;22232;50.914;13.858;2023-06-14T12:01:29;2.78;;;2.30;;
36189;SDS011;22232;50.914;13.858;2023-06-14T12:03:58;3.50;;;2.60;;
36189;SDS011;22232;50.914;13.858;2023-06-14T12:06:27;4.53;;;3.03;;
36189;SDS011;22232;50.914;13.858;2023-06-14T12:08:56;3.28;;;2.97;;
36189;SDS011;22232;50.914;13.858;2023-06-14T12:11:27;4.10;;;3.08;;
36189;SDS011;22232;50.914;13.858;2023-06-14T12:13:59;4.63;;;2.95;;
36189;SDS011;22232;50.914;13.858;2023-06-14T12:16:31;3.83;;;2.72;;
36189;SDS011;22232;50.914;13.858;2023-06-14T12:19:15;5.18;;;3.25;;
36189;SDS011;22232;50.914;13.858;2023-06-14T12:21:47;3.95;;;2.92;;
36189;SDS011;22232;50.914;13.858;2023-06-14T12:24:19;3.28;;;2.63;;
36189;SDS011;22232;50.914;13.858;2023-06-14T12:26:46;3.75;;;2.90;;
36189;SDS011;22232;50.914;13.858;2023-06-14T12:29:14;9.18;;;3.28;;
36189;SDS011;22232;50.914;13.858;2023-06-14T12:31:42;5.40;;;3.20;;
36189;SDS011;22232;50.914;13.858;2023-06-14T12:34:10;4.88;;;3.80;;
36189;SDS011;22232;50.914;13.858;2023-06-14T12:36:37;6.07;;;4.20;;
36189;SDS011;22232;50.914;13.858;2023-06-14T12:39:12;5.32;;;4.43;;
36189;SDS011;22232;50.914;13.858;2023-06-14T12:41:40;7.00;;;4.95;;
36189;SDS011;22232;50.914;13.858;2023-06-14T12:44:10;7.30;;;4.50;;
36189;SDS011;22232;50.914;13.858;2023-06-14T12:46:38;5.90;;;4.60;;
36189;SDS011;22232;50.914;13.858;2023-06-14T12:49:10;7.53;;;5.35;;
36189;SDS011;22232;50.914;13.858;2023-06-14T12:51:39;7.80;;;4.28;;
36189;SDS011;22232;50.914;13.858;2023-06-14T12:54:09;6.43;;;4.47;;
36189;SDS011;22232;50.914;13.858;2023-06-14T12:56:36;5.43;;;4.50;;
36189;SDS011;22232;50.914;13.858;2023-06-14T12:59:04;6.05;;;4.20;;
36189;SDS011;22232;50.914;13.858;2023-06-14T13:01:33;6.38;;;4.63;;
36189;SDS011;22232;50.914;13.858;2023-06-14T13:04:01;6.72;;;4.30;;
36189;SDS011;22232;50.914;13.858;2023-06-14T13:06:28;5.40;;;4.25;;
36189;SDS011;22232;50.914;13.858;2023-06-14T13:08:58;4.38;;;3.50;;
36189;SDS011;22232;50.914;13.858;2023-06-14T13:11:26;10.90;;;4.60;;
36189;SDS011;22232;50.914;13.858;2023-06-14T13:13:54;4.63;;;3.10;;
36189;SDS011;22232;50.914;13.858;2023-06-14T13:16:21;3.85;;;3.28;;
36189;SDS011;22232;50.914;13.858;2023-06-14T13:18:49;3.70;;;3.38;;
36189;SDS011;22232;50.914;13.858;2023-06-14T13:21:17;4.97;;;3.22;;
36189;SDS011;22232;50.914;13.858;2023-06-14T13:23:44;3.35;;;3.03;;
36189;SDS011;22232;50.914;13.858;2023-06-14T13:26:12;4.55;;;3.10;;
36189;SDS011;22232;50.914;13.858;2023-06-14T13:28:39;3.53;;;3.22;;
36189;SDS011;22232;50.914;13.858;2023-06-14T13:31:07;3.42;;;2.80;;
36189;SDS011;22232;50.914;13.858;2023-06-14T13:33:34;6.07;;;3.63;;
36189;SDS011;22232;50.914;13.858;2023-06-14T13:36:02;4.22;;;3.38;;
36189;SDS011;22232;50.914;13.858;2023-06-14T13:38:30;6.63;;;3.67;;
36189;SDS011;22232;50.914;13.858;2023-06-14T13:40:57;4.43;;;3.72;;
36189;SDS011;22232;50.914;13.858;2023-06-14T13:43:25;3.33;;;3.03;;
36189;SDS011;22232;50.914;13.858;2023-06-14T13:45:52;4.53;;;3.40;;
36189;SDS011;22232;50.914;13.858;2023-06-14T13:48:20;4.57;;;3.38;;
36189;SDS011;22232;50.914;13.858;2023-06-14T13:50:49;4.63;;;3.03;;
36189;SDS011;22232;50.914;13.858;2023-06-14T13:53:16;4.00;;;3.10;;
36189;SDS011;22232;50.914;13.858;2023-06-14T13:55:44;3.63;;;3.10;;
36189;SDS011;22232;50.914;13.858;2023-06-14T13:58:12;5.50;;;3.53;;
36189;SDS011;22232;50.914;13.858;2023-06-14T14:00:41;3.72;;;3.35;;
36189;SDS011;22232;50.914;13.858;2023-06-14T14:03:09;3.88;;;3.20;;
36189;SDS011;22232;50.914;13.858;2023-06-14T14:05:37;3.90;;;3.30;;
36189;SDS011;22232;50.914;13.858;2023-06-14T14:08:04;5.35;;;3.80;;
36189;SDS011;22232;50.914;13.858;2023-06-14T14:10:32;5.05;;;3.40;;
36189;SDS011;22232;50.914;13.858;2023-06-14T14:13:00;4.80;;;3.40;;
36189;SDS011;22232;50.914;13.858;2023-06-14T14:15:28;6.85;;;3.92;;
36189;SDS011;22232;50.914;13.858;2023-06-14T14:17:56;5.63;;;3.95;;
36189;SDS011;22232;50.914;13.858;2023-06-14T14:20:24;4.75;;;3.35;;
36189;SDS011;22232;50.914;13.858;2023-06-14T14:22:52;5.30;;;3.63;;
36189;SDS011;22232;50.914;13.858;2023-06-14T14:25:19;5.03;;;3.70;;
36189;SDS011;22232;50.914;13.858;2023-06-14T14:27:47;4.70;;;3.53;;
36189;SDS011;22232;50.914;13.858;2023-06-14T14:30:15;5.13;;;3.40;;
36189;SDS011;22232;50.914;13.858;2023-06-14T14:32:44;4.45;;;3.60;;
36189;SDS011;22232;50.914;13.858;2023-06-14T14:35:12;4.78;;;3.60;;
36189;SDS011;22232;50.914;13.858;2023-06-14T14:37:40;3.40;;;3.10;;
36189;SDS011;22232;50.914;13.858;2023-06-14T14:40:07;3.90;;;3.40;;
36189;SDS011;22232;50.914;13.858;2023-06-14T14:42:36;5.10;;;3.63;;
36189;SDS011;22232;50.914;13.858;2023-06-14T14:45:04;5.45;;;4.03;;
36189;SDS011;22232;50.914;13.858;2023-06-14T14:47:32;3.85;;;3.47;;
36189;SDS011;22232;50.914;13.858;2023-06-14T14:50:00;4.28;;;3.22;;
36189;SDS011;22232;50.914;13.858;2023-06-14T14:52:28;6.07;;;3.53;;
36189;SDS011;22232;50.914;13.858;2023-06-14T14:54:55;4.25;;;3.50;;
36189;SDS011;22232;50.914;13.858;2023-06-14T14:57:23;4.40;;;3.67;;
36189;SDS011;22232;50.914;13.858;2023-06-14T14:59:50;5.75;;;3.60;;
36189;SDS011;22232;50.914;13.858;2023-06-14T15:02:18;4.28;;;3.60;;
36189;SDS011;22232;50.914;13.858;2023-06-14T15:04:46;7.90;;;3.33;;
36189;SDS011;22232;50.914;13.858;2023-06-14T15:07:13;4.72;;;3.40;;
36189;SDS011;22232;50.914;13.858;2023-06-14T15:09:41;5.00;;;3.67;;